Time;durP1;ratioP1;P1;durP2;ratioP2;P2;SDS_P1;SDS_P2;PMS_P1;PMS_P2;Temp;Humidity;BMP_temperature;BMP_pressure;BME280_temperature;BME280_humidity;BME280_pressure;Samples;Min_cycle;Max_cycle;Signal;HPM_P1;HPM_P2
2021/05/21 00:00:26;;;;;;;0.20;0.20;;;13.70;99.90;;;;;;5044751;28;20272;-81
2021/05/21 00:02:52;;;;;;;0.10;0.10;;;13.60;99.90;;;;;;5052665;28;20185;-80
2021/05/21 00:05:17;;;;;;;0.10;0.10;;;13.70;99.90;;;;;;5045644;28;20252;-80
2021/05/21 00:07:43;;;;;;;0.23;0.10;;;13.70;99.90;;;;;;5046111;28;20211;-80
2021/05/21 00:10:09;;;;;;;0.20;0.20;;;13.70;99.90;;;;;;5040151;28;20182;-79
2021/05/21 00:12:34;;;;;;;1.70;0.23;;;13.80;99.90;;;;;;5042409;28;20190;-80
2021/05/21 00:15:00;;;;;;;0.10;0.10;;;13.80;99.90;;;;;;5043796;28;20196;-80
2021/05/21 00:17:25;;;;;;;0.10;0.10;;;13.80;99.90;;;;;;5049956;28;20308;-81
2021/05/21 00:19:51;;;;;;;0.40;0.40;;;13.80;99.90;;;;;;5046970;28;20194;-80
2021/05/21 00:22:17;;;;;;;0.10;0.10;;;13.80;99.90;;;;;;5052475;28;20209;-79
2021/05/21 00:24:42;;;;;;;0.10;0.10;;;13.70;99.90;;;;;;5054176;28;20285;-79
2021/05/21 00:27:08;;;;;;;0.13;0.13;;;13.70;99.90;;;;;;5051438;28;20581;-80
2021/05/21 00:29:34;;;;;;;0.10;0.10;;;13.60;99.90;;;;;;5045078;28;20221;-81
2021/05/21 00:32:00;;;;;;;0.20;0.20;;;13.50;99.90;;;;;;5048216;28;20196;-81
2021/05/21 00:34:26;;;;;;;0.10;0.10;;;13.30;99.90;;;;;;5051125;28;20217;-80
2021/05/21 00:36:52;;;;;;;0.53;0.20;;;13.40;99.90;;;;;;5050258;28;20563;-80
2021/05/21 00:39:19;;;;;;;0.10;0.10;;;13.50;99.90;;;;;;5048811;28;20252;-80
2021/05/21 00:41:45;;;;;;;0.20;0.20;;;13.50;99.90;;;;;;5039660;28;20425;-80
2021/05/21 00:44:11;;;;;;;0.20;0.20;;;13.50;99.90;;;;;;5050893;28;20292;-80
2021/05/21 00:46:37;;;;;;;0.17;0.17;;;13.60;99.90;;;;;;5039419;28;20186;-80
2021/05/21 00:49:02;;;;;;;0.30;0.13;;;13.50;99.90;;;;;;5050454;28;20183;-80
2021/05/21 00:51:28;;;;;;;0.20;0.20;;;13.20;99.90;;;;;;5042924;28;20268;-80
2021/05/21 00:53:55;;;;;;;0.40;0.40;;;13.20;99.90;;;;;;5051070;28;20248;-81
2021/05/21 00:56:20;;;;;;;0.20;0.20;;;13.10;99.90;;;;;;5053883;28;20264;-80
2021/05/21 00:58:46;;;;;;;0.10;0.10;;;13.20;99.90;;;;;;5055914;28;20223;-80
2021/05/21 01:01:11;;;;;;;0.17;0.17;;;13.30;99.90;;;;;;5054045;28;20228;-80
2021/05/21 01:03:39;;;;;;;0.23;0.23;;;13.40;99.90;;;;;;5050631;28;20268;-80
2021/05/21 01:06:06;;;;;;;0.23;0.23;;;13.20;99.90;;;;;;5050418;28;20223;-80
2021/05/21 01:08:33;;;;;;;0.10;0.10;;;13.20;99.90;;;;;;5044321;28;20195;-80
2021/05/21 01:10:59;;;;;;;0.20;0.20;;;13.20;99.90;;;;;;5047118;28;20239;-80
2021/05/21 01:13:24;;;;;;;0.23;0.17;;;13.20;99.90;;;;;;5052622;28;20178;-80
2021/05/21 01:15:50;;;;;;;0.20;0.20;;;13.30;99.90;;;;;;5053187;28;20205;-80
2021/05/21 01:18:15;;;;;;;0.13;0.13;;;13.40;99.90;;;;;;5052972;28;20213;-81
2021/05/21 01:20:41;;;;;;;0.30;0.30;;;13.50;99.90;;;;;;5052305;28;20199;-81
2021/05/21 01:23:07;;;;;;;0.13;0.13;;;13.60;99.90;;;;;;5062119;28;20189;-80
2021/05/21 01:25:34;;;;;;;0.10;0.10;;;13.60;99.90;;;;;;5056163;28;20238;-78
2021/05/21 01:28:00;;;;;;;0.30;0.30;;;13.70;99.90;;;;;;5047982;28;20204;-80
2021/05/21 01:30:27;;;;;;;0.23;0.23;;;13.70;99.90;;;;;;5049638;28;20575;-80
2021/05/21 01:32:54;;;;;;;0.10;0.10;;;13.80;99.90;;;;;;5045348;28;21598;-79
2021/05/21 01:35:20;;;;;;;0.20;0.20;;;13.80;99.90;;;;;;5052085;28;20188;-80
2021/05/21 01:37:49;;;;;;;0.10;0.10;;;13.90;99.90;;;;;;5051937;28;20261;-80
2021/05/21 01:40:15;;;;;;;0.10;0.10;;;13.90;99.90;;;;;;5052359;28;20279;-79
2021/05/21 01:42:41;;;;;;;0.10;0.10;;;13.90;99.90;;;;;;5051611;28;20235;-80
2021/05/21 01:45:09;;;;;;;0.10;0.10;;;13.90;99.90;;;;;;5047973;28;20557;-80
2021/05/21 01:47:34;;;;;;;0.13;0.13;;;13.80;99.90;;;;;;5053343;28;20212;-80
2021/05/21 01:50:01;;;;;;;0.10;0.10;;;13.80;99.90;;;;;;5051134;28;20178;-80
2021/05/21 01:52:26;;;;;;;0.17;0.17;;;13.80;99.90;;;;;;5053983;28;20601;-80
2021/05/21 01:54:52;;;;;;;0.10;0.10;;;13.80;99.90;;;;;;5056068;28;20219;-80
2021/05/21 01:57:18;;;;;;;0.10;0.10;;;13.80;99.90;;;;;;5059377;28;20206;-80
2021/05/21 01:59:43;;;;;;;0.10;0.10;;;13.80;99.90;;;;;;5050136;28;20185;-80
2021/05/21 02:02:09;;;;;;;0.10;0.10;;;13.80;99.90;;;;;;5051012;28;20622;-80
2021/05/21 02:04:37;;;;;;;0.10;0.10;;;13.80;99.90;;;;;;5055219;28;20219;-80
2021/05/21 02:07:04;;;;;;;0.07;0.07;;;13.80;99.90;;;;;;5057434;28;20257;-80
2021/05/21 02:09:41;;;;;;;0.20;0.10;;;13.80;99.90;;;;;;5048079;28;20260;-80
2021/05/21 02:12:07;;;;;;;0.10;0.10;;;13.60;99.90;;;;;;5049061;28;20191;-79
2021/05/21 02:14:32;;;;;;;0.10;0.10;;;13.50;99.90;;;;;;5056174;28;20211;-80
2021/05/21 02:16:58;;;;;;;0.50;0.30;;;13.50;99.90;;;;;;5071142;28;20201;-80
2021/05/21 02:19:23;;;;;;;0.10;0.10;;;13.50;99.90;;;;;;5052629;28;20580;-79
2021/05/21 02:21:49;;;;;;;0.20;0.20;;;13.40;99.90;;;;;;5058611;28;20716;-80
2021/05/21 02:24:15;;;;;;;0.20;0.20;;;13.40;99.90;;;;;;5062418;28;20200;-80
2021/05/21 02:26:41;;;;;;;1.23;1.23;;;13.50;99.90;;;;;;5055921;28;20177;-80
2021/05/21 02:29:06;;;;;;;0.00;0.00;;;13.40;99.90;;;;;;5053184;28;20598;-80
2021/05/21 02:31:32;;;;;;;0.10;0.10;;;13.40;99.90;;;;;;5048106;28;20205;-80
2021/05/21 02:33:58;;;;;;;0.37;0.37;;;13.30;99.90;;;;;;5053673;28;20185;-80
2021/05/21 02:36:23;;;;;;;0.10;0.10;;;13.20;99.90;;;;;;5054572;28;20236;-80
2021/05/21 02:38:49;;;;;;;0.00;0.00;;;13.20;99.90;;;;;;5053855;28;20182;-80
2021/05/21 02:41:14;;;;;;;0.10;0.10;;;13.10;99.90;;;;;;5053401;28;20244;-79
2021/05/21 02:43:40;;;;;;;0.17;0.17;;;13.20;99.90;;;;;;5052324;28;20271;-78
2021/05/21 02:46:06;;;;;;;0.20;0.20;;;13.10;99.90;;;;;;5048483;28;20204;-80
2021/05/21 02:48:31;;;;;;;0.10;0.10;;;13.10;99.90;;;;;;5053934;28;20239;-80
2021/05/21 02:50:57;;;;;;;0.30;0.30;;;13.10;99.90;;;;;;5051978;28;20178;-80
2021/05/21 02:53:22;;;;;;;0.30;0.20;;;13.10;99.90;;;;;;5051256;28;20183;-79
2021/05/21 02:55:48;;;;;;;0.20;0.20;;;13.00;99.90;;;;;;5045090;28;20650;-81
2021/05/21 02:58:13;;;;;;;0.03;0.03;;;13.00;99.90;;;;;;5052587;28;20206;-80
2021/05/21 03:00:39;;;;;;;0.03;0.03;;;13.00;99.90;;;;;;5048566;28;20253;-80
2021/05/21 03:03:05;;;;;;;0.23;0.23;;;13.00;99.90;;;;;;5051406;28;20192;-79
2021/05/21 03:05:30;;;;;;;0.10;0.10;;;13.00;99.90;;;;;;5044842;28;20271;-80
2021/05/21 03:07:57;;;;;;;0.10;0.10;;;13.10;99.90;;;;;;5044087;28;20197;-80
2021/05/21 03:10:27;;;;;;;0.10;0.10;;;13.00;99.90;;;;;;5048632;28;20189;-79
2021/05/21 03:12:53;;;;;;;0.10;0.10;;;13.00;99.90;;;;;;5052379;28;20188;-80
2021/05/21 03:15:18;;;;;;;0.10;0.10;;;12.90;99.90;;;;;;5052929;28;20197;-80
2021/05/21 03:17:44;;;;;;;0.10;0.10;;;12.90;99.90;;;;;;5067000;28;20298;-80
2021/05/21 03:20:11;;;;;;;0.10;0.10;;;12.80;99.90;;;;;;5047700;28;20203;-80
2021/05/21 03:22:36;;;;;;;0.10;0.10;;;12.80;99.90;;;;;;5053340;28;20256;-80
2021/05/21 03:25:04;;;;;;;0.20;0.20;;;12.70;99.90;;;;;;5045793;28;20583;-80
2021/05/21 03:27:33;;;;;;;0.10;0.10;;;12.60;99.90;;;;;;5052672;28;20206;-80
2021/05/21 03:29:59;;;;;;;0.20;0.20;;;12.50;99.90;;;;;;5051977;28;20182;-80
2021/05/21 03:32:26;;;;;;;0.10;0.10;;;12.50;99.90;;;;;;5051630;28;20551;-83
2021/05/21 03:34:52;;;;;;;0.43;0.43;;;12.50;99.90;;;;;;5049888;28;20197;-82
2021/05/21 03:37:18;;;;;;;0.23;0.23;;;12.50;99.90;;;;;;5047319;28;20621;-84
2021/05/21 03:39:44;;;;;;;0.10;0.10;;;12.30;99.90;;;;;;5042567;28;20219;-80
2021/05/21 03:42:09;;;;;;;0.00;0.00;;;12.30;99.90;;;;;;5025489;28;20214;-82
2021/05/21 03:44:35;;;;;;;0.10;0.10;;;12.40;99.90;;;;;;5042245;28;20237;-82
2021/05/21 03:47:02;;;;;;;0.20;0.20;;;12.40;99.90;;;;;;5048246;28;20208;-81
2021/05/21 03:49:29;;;;;;;0.10;0.10;;;12.40;99.90;;;;;;5037787;28;20187;-79
2021/05/21 03:51:56;;;;;;;0.10;0.07;;;12.40;99.90;;;;;;5036907;28;20187;-81
2021/05/21 03:54:22;;;;;;;0.10;0.10;;;12.20;99.90;;;;;;5040809;28;20214;-81
2021/05/21 03:56:48;;;;;;;0.20;0.20;;;12.20;99.90;;;;;;5049904;28;20296;-81
2021/05/21 03:59:14;;;;;;;0.13;0.13;;;12.40;99.90;;;;;;5046750;28;20288;-81
2021/05/21 04:01:39;;;;;;;0.20;0.20;;;12.40;99.90;;;;;;5048658;28;20200;-82
2021/05/21 04:04:06;;;;;;;0.30;0.30;;;12.40;99.90;;;;;;5044666;28;20201;-82
2021/05/21 04:06:32;;;;;;;0.10;0.10;;;12.20;99.90;;;;;;5051541;28;20643;-81
2021/05/21 04:09:06;;;;;;;0.20;0.20;;;12.20;99.90;;;;;;5048830;28;20190;-81
2021/05/21 04:11:32;;;;;;;0.17;0.17;;;12.00;99.90;;;;;;5047216;28;20277;-81
2021/05/21 04:13:57;;;;;;;0.10;0.10;;;12.20;99.90;;;;;;5050996;28;20250;-81
2021/05/21 04:16:26;;;;;;;0.77;0.53;;;12.10;99.90;;;;;;5057667;28;20194;-81
2021/05/21 04:18:53;;;;;;;0.10;0.10;;;12.10;99.90;;;;;;5052961;28;20188;-82
2021/05/21 04:21:19;;;;;;;0.20;0.20;;;12.00;99.90;;;;;;5042749;28;20194;-81
2021/05/21 04:23:45;;;;;;;0.30;0.20;;;11.80;99.90;;;;;;5055715;28;20185;-81
2021/05/21 04:26:10;;;;;;;0.10;0.10;;;12.10;99.90;;;;;;5056564;28;20220;-81
2021/05/21 04:28:36;;;;;;;0.20;0.20;;;12.10;99.90;;;;;;5053438;28;20209;-80
2021/05/21 04:31:02;;;;;;;0.23;0.23;;;12.00;99.90;;;;;;5062976;28;20186;-80
2021/05/21 04:33:27;;;;;;;0.47;0.30;;;12.00;99.90;;;;;;5064416;28;20218;-80
2021/05/21 04:35:53;;;;;;;0.07;0.07;;;11.90;99.90;;;;;;5063452;28;20194;-79
2021/05/21 04:38:18;;;;;;;0.10;0.10;;;12.00;99.90;;;;;;5050920;28;20210;-81
2021/05/21 04:40:44;;;;;;;0.10;0.10;;;12.00;99.90;;;;;;5052380;28;20289;-82
2021/05/21 04:43:09;;;;;;;0.10;0.10;;;12.10;99.90;;;;;;5052941;28;20182;-82
2021/05/21 04:45:35;;;;;;;0.10;0.10;;;12.10;99.90;;;;;;5047342;28;20289;-83
2021/05/21 04:48:00;;;;;;;0.77;0.50;;;12.00;99.90;;;;;;5053304;28;20681;-83
2021/05/21 04:50:26;;;;;;;0.20;0.20;;;12.00;99.90;;;;;;5051093;28;20217;-84
2021/05/21 04:52:51;;;;;;;0.10;0.10;;;12.00;99.90;;;;;;5053568;28;20181;-83
2021/05/21 04:55:17;;;;;;;0.13;0.13;;;12.00;99.90;;;;;;5052972;28;20246;-81
2021/05/21 04:57:49;;;;;;;0.10;0.10;;;12.00;99.90;;;;;;5054157;28;20217;-80
2021/05/21 05:00:15;;;;;;;1.57;1.47;;;12.30;99.90;;;;;;5052421;28;20182;-80
2021/05/21 05:02:40;;;;;;;0.20;0.20;;;12.20;99.90;;;;;;5054692;28;20247;-80
2021/05/21 05:05:06;;;;;;;0.00;0.00;;;12.30;99.90;;;;;;5054335;28;20578;-80
2021/05/21 05:07:32;;;;;;;0.33;0.33;;;12.40;99.90;;;;;;5064333;28;20911;-80
2021/05/21 05:09:57;;;;;;;0.27;0.27;;;12.40;99.90;;;;;;5068469;28;20185;-78
2021/05/21 05:12:23;;;;;;;0.40;0.40;;;12.40;99.90;;;;;;5060142;28;20280;-81
2021/05/21 05:14:48;;;;;;;0.10;0.10;;;12.40;99.90;;;;;;5052910;28;20190;-82
2021/05/21 05:17:14;;;;;;;1.17;0.60;;;12.50;99.90;;;;;;5064960;28;20234;-80
2021/05/21 05:19:39;;;;;;;0.20;0.20;;;12.60;99.90;;;;;;5054789;28;20629;-79
2021/05/21 05:22:05;;;;;;;0.20;0.20;;;12.60;99.90;;;;;;5057721;28;20201;-80
2021/05/21 05:24:34;;;;;;;0.17;0.17;;;12.70;99.90;;;;;;5055014;28;20201;-83
2021/05/21 05:27:00;;;;;;;0.20;0.20;;;12.90;99.90;;;;;;5048102;28;20221;-83
2021/05/21 05:29:26;;;;;;;1.27;1.17;;;12.90;99.90;;;;;;5047009;28;20184;-82
2021/05/21 05:31:53;;;;;;;0.13;0.13;;;13.20;99.90;;;;;;5047404;28;20637;-82
2021/05/21 05:34:18;;;;;;;0.30;0.30;;;13.30;99.90;;;;;;5054508;28;20244;-83
2021/05/21 05:36:44;;;;;;;0.97;0.97;;;13.40;99.90;;;;;;5046612;28;20189;-82
2021/05/21 05:39:10;;;;;;;0.67;0.43;;;13.40;99.90;;;;;;5046234;28;20186;-83
2021/05/21 05:41:36;;;;;;;0.10;0.10;;;13.70;99.90;;;;;;5050206;28;20191;-83
2021/05/21 05:44:02;;;;;;;0.10;0.10;;;13.80;99.90;;;;;;5048826;28;20287;-84
2021/05/21 05:46:27;;;;;;;0.10;0.10;;;14.10;99.90;;;;;;5046759;28;20181;-81
2021/05/21 05:48:53;;;;;;;0.87;0.83;;;14.30;99.90;;;;;;5050937;28;20197;-80
2021/05/21 05:51:19;;;;;;;0.30;0.27;;;14.60;99.90;;;;;;5049185;28;20182;-84
2021/05/21 05:53:44;;;;;;;0.13;0.10;;;14.90;99.90;;;;;;5046506;28;20572;-84
2021/05/21 05:56:11;;;;;;;0.10;0.10;;;15.10;99.90;;;;;;5048120;28;20767;-84
2021/05/21 05:58:37;;;;;;;0.10;0.10;;;15.40;99.90;;;;;;5051376;28;20262;-85
2021/05/21 06:01:03;;;;;;;0.10;0.10;;;15.50;99.90;;;;;;5045386;28;20271;-84
2021/05/21 06:03:29;;;;;;;0.30;0.20;;;15.60;99.90;;;;;;5045605;28;20270;-83
2021/05/21 06:05:55;;;;;;;0.30;0.30;;;15.70;99.90;;;;;;5046568;28;20636;-83
2021/05/21 06:08:21;;;;;;;0.30;0.30;;;15.90;99.90;;;;;;5049235;28;20295;-83
2021/05/21 06:10:47;;;;;;;0.20;0.20;;;15.90;99.90;;;;;;5051315;28;20273;-82
2021/05/21 06:13:12;;;;;;;0.10;0.10;;;15.90;99.90;;;;;;5049705;28;20239;-83
2021/05/21 06:15:39;;;;;;;0.20;0.20;;;16.10;99.90;;;;;;5060569;28;20207;-83
2021/05/21 06:18:05;;;;;;;0.10;0.10;;;16.00;99.90;;;;;;5057336;28;20208;-83
2021/05/21 06:20:32;;;;;;;0.40;0.40;;;16.10;99.90;;;;;;5052411;28;20188;-82
2021/05/21 06:22:58;;;;;;;0.10;0.10;;;16.20;99.90;;;;;;5050601;28;20195;-83
2021/05/21 06:25:39;;;;;;;0.33;0.33;;;16.30;99.90;;;;;;5050592;28;20209;-84
2021/05/21 06:28:05;;;;;;;0.10;0.10;;;16.20;99.90;;;;;;5042204;28;20214;-83
2021/05/21 06:30:31;;;;;;;7.23;1.90;;;16.10;99.90;;;;;;5040169;28;20680;-84
2021/05/21 06:32:56;;;;;;;0.20;0.20;;;16.10;99.90;;;;;;5050258;28;20185;-84
2021/05/21 06:35:22;;;;;;;0.20;0.20;;;16.00;99.90;;;;;;5052134;28;20697;-83
2021/05/21 06:37:48;;;;;;;0.10;0.10;;;15.90;99.90;;;;;;5050135;28;20289;-83
2021/05/21 06:40:14;;;;;;;0.20;0.20;;;15.90;99.90;;;;;;5051034;28;20193;-82
2021/05/21 06:42:40;;;;;;;0.27;0.20;;;16.00;99.90;;;;;;5045671;28;20281;-83
2021/05/21 06:45:07;;;;;;;0.10;0.10;;;16.00;99.90;;;;;;5051519;28;20279;-80
2021/05/21 06:47:33;;;;;;;0.20;0.20;;;16.00;99.90;;;;;;5052736;28;20238;-80
2021/05/21 06:49:58;;;;;;;0.30;0.30;;;16.10;99.90;;;;;;5050641;28;20189;-79
2021/05/21 06:52:24;;;;;;;0.10;0.10;;;16.10;99.90;;;;;;5048772;28;20646;-79
2021/05/21 06:54:49;;;;;;;0.20;0.20;;;16.10;99.90;;;;;;5051315;28;20206;-79
2021/05/21 06:57:15;;;;;;;0.10;0.10;;;16.20;99.90;;;;;;5052283;28;20219;-77
2021/05/21 06:59:41;;;;;;;0.30;0.30;;;16.20;99.90;;;;;;5048804;28;20200;-80
2021/05/21 07:02:07;;;;;;;0.10;0.10;;;16.20;99.90;;;;;;5041714;28;20601;-80
2021/05/21 07:04:33;;;;;;;0.20;0.20;;;16.10;99.90;;;;;;5049424;28;20261;-85
2021/05/21 07:06:58;;;;;;;3.93;0.30;;;16.00;99.90;;;;;;5043167;28;20204;-79
2021/05/21 07:09:24;;;;;;;0.20;0.20;;;15.90;99.90;;;;;;5046630;28;20202;-80
2021/05/21 07:11:50;;;;;;;0.00;0.00;;;15.90;99.90;;;;;;5046513;28;20187;-81
2021/05/21 07:14:15;;;;;;;0.20;0.20;;;15.90;99.90;;;;;;5050055;28;20187;-81
2021/05/21 07:16:41;;;;;;;0.10;0.10;;;16.00;99.90;;;;;;5063234;28;20188;-81
2021/05/21 07:19:08;;;;;;;0.10;0.10;;;16.00;99.90;;;;;;5055355;28;20215;-81
2021/05/21 07:21:33;;;;;;;0.10;0.10;;;16.10;99.90;;;;;;5052127;28;20197;-80
2021/05/21 07:23:59;;;;;;;1.60;0.20;;;16.10;99.90;;;;;;5052773;28;20541;-80
2021/05/21 07:26:26;;;;;;;0.20;0.20;;;16.10;99.90;;;;;;5053533;28;20373;-80
2021/05/21 07:28:53;;;;;;;0.20;0.20;;;16.20;99.90;;;;;;5053214;28;20267;-81
2021/05/21 07:31:19;;;;;;;0.10;0.10;;;16.20;99.90;;;;;;5045696;28;20186;-81
2021/05/21 07:33:45;;;;;;;0.10;0.10;;;16.30;99.90;;;;;;5050095;28;20271;-80
2021/05/21 07:36:10;;;;;;;0.20;0.20;;;16.40;99.90;;;;;;5053092;28;20193;-80
2021/05/21 07:38:36;;;;;;;0.10;0.10;;;16.50;99.90;;;;;;5052836;28;20211;-81
2021/05/21 07:41:03;;;;;;;0.10;0.10;;;16.50;99.90;;;;;;5048580;28;20527;-81
2021/05/21 07:43:28;;;;;;;0.10;0.10;;;16.50;99.90;;;;;;5052603;28;20195;-81
2021/05/21 07:45:54;;;;;;;0.10;0.10;;;16.60;99.90;;;;;;5042657;28;20650;-81
2021/05/21 07:48:20;;;;;;;0.10;0.10;;;16.70;99.90;;;;;;5049640;28;20217;-81
2021/05/21 07:50:47;;;;;;;0.10;0.10;;;16.70;99.90;;;;;;5049935;28;20188;-81
2021/05/21 07:53:12;;;;;;;0.40;0.20;;;16.60;99.90;;;;;;5049079;28;20185;-81
2021/05/21 07:55:39;;;;;;;0.23;0.23;;;16.70;99.90;;;;;;5046075;28;20197;-79
2021/05/21 07:58:06;;;;;;;0.10;0.10;;;16.50;99.90;;;;;;5046040;28;20220;-81
2021/05/21 08:00:31;;;;;;;0.10;0.10;;;16.70;99.90;;;;;;5043548;28;20291;-79
2021/05/21 08:02:57;;;;;;;0.10;0.10;;;16.90;99.90;;;;;;5045677;28;20182;-79
2021/05/21 08:05:23;;;;;;;0.10;0.10;;;16.90;99.90;;;;;;5042578;28;20204;-81
2021/05/21 08:07:49;;;;;;;0.10;0.10;;;17.10;99.90;;;;;;5043282;28;20266;-81
2021/05/21 08:10:15;;;;;;;0.10;0.10;;;17.00;99.90;;;;;;5050576;28;20209;-82
2021/05/21 08:12:40;;;;;;;0.13;0.13;;;16.80;99.90;;;;;;5047668;28;20656;-82
2021/05/21 08:15:06;;;;;;;0.13;0.13;;;16.80;99.90;;;;;;5048566;28;20185;-83
2021/05/21 08:17:34;;;;;;;0.20;0.20;;;16.70;99.90;;;;;;5045056;28;20209;-80
2021/05/21 08:20:01;;;;;;;0.23;0.23;;;16.80;99.90;;;;;;5038844;28;20661;-81
2021/05/21 08:22:28;;;;;;;0.10;0.10;;;16.90;99.90;;;;;;5044256;28;20206;-81
2021/05/21 08:24:53;;;;;;;0.13;0.13;;;16.90;99.90;;;;;;5053891;28;20211;-80
2021/05/21 08:27:19;;;;;;;0.10;0.10;;;16.90;99.90;;;;;;5064057;28;20271;-80
2021/05/21 08:29:45;;;;;;;0.20;0.20;;;17.00;99.90;;;;;;5055866;28;20197;-80
2021/05/21 08:32:10;;;;;;;0.10;0.10;;;17.30;99.90;;;;;;5058242;28;20188;-79
2021/05/21 08:34:36;;;;;;;0.10;0.10;;;17.30;99.90;;;;;;5059106;28;20252;-82
2021/05/21 08:37:01;;;;;;;0.77;0.30;;;17.30;99.90;;;;;;5057552;28;20208;-80
2021/05/21 08:39:27;;;;;;;0.10;0.10;;;17.20;99.90;;;;;;5055944;28;20201;-81
2021/05/21 08:41:54;;;;;;;0.30;0.30;;;17.00;99.90;;;;;;5055897;28;20195;-81
2021/05/21 08:44:20;;;;;;;0.17;0.17;;;17.00;99.90;;;;;;5053860;28;20260;-81
2021/05/21 08:46:47;;;;;;;0.40;0.40;;;17.00;99.90;;;;;;5051202;28;20205;-81
2021/05/21 08:49:13;;;;;;;0.53;0.20;;;17.00;99.90;;;;;;5048034;28;20183;-81
2021/05/21 08:51:39;;;;;;;1.70;0.63;;;16.90;99.90;;;;;;5054327;28;20200;-80
2021/05/21 08:54:07;;;;;;;0.10;0.10;;;16.80;99.90;;;;;;5051761;28;20181;-81
2021/05/21 08:56:33;;;;;;;0.10;0.10;;;16.80;99.90;;;;;;5052891;28;20189;-81
2021/05/21 08:58:59;;;;;;;4.33;2.03;;;16.70;99.90;;;;;;5055524;28;20239;-80
2021/05/21 09:01:27;;;;;;;0.10;0.10;;;16.60;99.90;;;;;;5050139;28;20186;-80
2021/05/21 09:03:59;;;;;;;0.27;0.27;;;16.40;99.90;;;;;;5053402;28;20180;-80
2021/05/21 09:06:26;;;;;;;0.10;0.10;;;16.60;99.90;;;;;;5052552;28;20227;-80
2021/05/21 09:08:55;;;;;;;0.30;0.30;;;16.50;99.90;;;;;;5051085;28;20554;-80
2021/05/21 09:11:35;;;;;;;0.30;0.17;;;16.70;99.90;;;;;;5052393;28;20178;-81
2021/05/21 09:14:06;;;;;;;0.10;0.10;;;17.00;99.90;;;;;;5052486;28;20728;-83
2021/05/21 09:16:40;;;;;;;0.17;0.10;;;16.90;99.90;;;;;;5060899;28;20187;-82
2021/05/21 09:19:21;;;;;;;0.40;0.40;;;17.10;99.90;;;;;;5049248;28;20200;-81
2021/05/21 09:21:50;;;;;;;0.73;0.17;;;17.30;99.90;;;;;;5048587;28;20189;-83
2021/05/21 09:24:19;;;;;;;0.37;0.30;;;17.60;99.90;;;;;;5049713;28;20213;-82
2021/05/21 09:26:47;;;;;;;0.20;0.20;;;17.40;99.90;;;;;;5051667;28;20713;-82
2021/05/21 09:29:15;;;;;;;0.10;0.10;;;17.40;99.90;;;;;;5051265;28;20284;-81
2021/05/21 09:31:48;;;;;;;0.20;0.20;;;17.60;99.90;;;;;;5051061;28;20255;-82
2021/05/21 09:34:31;;;;;;;0.10;0.10;;;17.70;99.90;;;;;;5049103;28;20185;-82
2021/05/21 09:36:57;;;;;;;0.20;0.20;;;17.90;99.90;;;;;;5051895;28;20204;-82
2021/05/21 09:39:22;;;;;;;0.10;0.10;;;18.00;99.90;;;;;;5050369;28;20185;-82
2021/05/21 09:41:51;;;;;;;0.53;0.30;;;17.90;99.90;;;;;;5051113;28;20233;-82
2021/05/21 09:44:18;;;;;;;1.03;0.37;;;17.90;99.90;;;;;;5050484;28;20603;-82
2021/05/21 09:46:48;;;;;;;0.10;0.10;;;18.10;99.90;;;;;;5048945;28;20181;-80
2021/05/21 09:49:34;;;;;;;0.20;0.20;;;18.10;99.90;;;;;;5048637;28;20549;-82
2021/05/21 09:52:03;;;;;;;0.13;0.13;;;18.20;99.90;;;;;;5052220;28;20544;-81
2021/05/21 09:54:51;;;;;;;0.40;0.40;;;18.00;99.90;;;;;;5051957;28;20673;-82
2021/05/21 09:57:27;;;;;;;1.43;0.30;;;18.20;99.90;;;;;;5054163;28;20243;-81
2021/05/21 09:59:54;;;;;;;0.10;0.10;;;18.20;99.90;;;;;;5055907;28;20192;-82
2021/05/21 10:02:28;;;;;;;0.73;0.53;;;18.00;99.90;;;;;;5051868;28;20289;-80
2021/05/21 10:04:55;;;;;;;0.63;0.50;;;17.80;99.90;;;;;;5042795;28;20200;-82
2021/05/21 10:07:21;;;;;;;0.40;0.30;;;17.70;99.90;;;;;;5053642;28;20204;-80
2021/05/21 10:09:48;;;;;;;0.10;0.10;;;17.80;99.90;;;;;;5045367;28;20185;-81
2021/05/21 10:12:14;;;;;;;0.20;0.20;;;17.80;99.90;;;;;;5044195;28;21053;-83
2021/05/21 10:14:47;;;;;;;0.27;0.27;;;17.90;99.90;;;;;;5048184;28;20205;-82
2021/05/21 10:17:16;;;;;;;0.20;0.20;;;17.80;99.90;;;;;;5046275;28;20209;-82
2021/05/21 10:19:42;;;;;;;0.30;0.20;;;17.70;99.90;;;;;;5049787;28;20238;-82
2021/05/21 10:22:11;;;;;;;1.67;0.47;;;17.60;99.90;;;;;;5049745;28;20288;-83
2021/05/21 10:24:40;;;;;;;1.13;0.23;;;17.50;99.90;;;;;;5051785;28;20212;-82
2021/05/21 10:27:14;;;;;;;0.70;0.53;;;18.00;99.90;;;;;;5052370;28;20580;-83
2021/05/21 10:29:43;;;;;;;0.17;0.17;;;18.40;99.90;;;;;;5046632;28;20187;-83
2021/05/21 10:32:15;;;;;;;3.20;0.23;;;18.50;99.90;;;;;;5043636;28;20653;-83
2021/05/21 10:34:44;;;;;;;0.30;0.30;;;18.50;99.90;;;;;;5051106;28;20662;-83
2021/05/21 10:37:24;;;;;;;0.20;0.20;;;19.00;99.90;;;;;;5036082;28;20210;-82
2021/05/21 10:40:10;;;;;;;0.30;0.30;;;18.50;99.90;;;;;;5049041;28;20200;-83
2021/05/21 10:42:47;;;;;;;0.67;0.67;;;18.70;99.90;;;;;;5045499;28;20273;-83
2021/05/21 10:45:16;;;;;;;1.50;0.40;;;18.90;99.90;;;;;;5050208;28;20639;-82
2021/05/21 10:47:45;;;;;;;0.27;0.27;;;19.00;99.90;;;;;;5045921;28;20206;-83
2021/05/21 10:50:18;;;;;;;0.33;0.33;;;18.90;99.90;;;;;;5048568;28;20821;-83
2021/05/21 10:53:01;;;;;;;0.20;0.20;;;19.00;99.90;;;;;;5050960;28;20720;-82
2021/05/21 10:55:47;;;;;;;1.47;0.97;;;18.90;99.90;;;;;;5056927;28;20661;-83
2021/05/21 10:58:18;;;;;;;0.80;0.50;;;19.40;99.90;;;;;;5059555;28;20227;-81
2021/05/21 11:01:21;;;;;;;0.40;0.40;;;19.30;99.90;;;;;;5047206;28;20692;-83
2021/05/21 11:03:56;;;;;;;0.20;0.20;;;19.50;99.90;;;;;;5030784;28;20296;-82
2021/05/21 11:06:22;;;;;;;0.37;0.23;;;19.50;99.90;;;;;;5048164;28;20275;-83
2021/05/21 11:08:48;;;;;;;0.83;0.83;;;19.40;99.90;;;;;;5049092;28;20202;-81
2021/05/21 11:11:14;;;;;;;3.27;0.70;;;19.50;99.90;;;;;;5048625;28;20407;-83
2021/05/21 11:13:40;;;;;;;0.20;0.20;;;19.70;99.90;;;;;;5048425;28;20557;-82
2021/05/21 11:16:13;;;;;;;0.37;0.37;;;19.80;99.90;;;;;;5047414;28;20269;-82
2021/05/21 11:18:48;;;;;;;0.47;0.20;;;19.60;99.90;;;;;;5045895;28;20674;-81
2021/05/21 11:21:19;;;;;;;0.70;0.70;;;19.70;99.90;;;;;;5040184;28;20189;-80
2021/05/21 11:23:45;;;;;;;0.20;0.20;;;19.90;99.90;;;;;;5055478;28;20267;-83
2021/05/21 11:26:13;;;;;;;0.20;0.20;;;19.80;99.90;;;;;;5047408;28;20622;-82
2021/05/21 11:28:59;;;;;;;0.30;0.30;;;19.90;99.90;;;;;;5050131;28;20281;-82
2021/05/21 11:31:31;;;;;;;0.53;0.20;;;19.80;99.90;;;;;;5047578;28;20181;-82
2021/05/21 11:34:02;;;;;;;0.20;0.20;;;19.70;99.90;;;;;;5049824;28;20177;-81
2021/05/21 11:36:33;;;;;;;0.40;0.40;;;19.40;99.90;;;;;;5049401;28;20189;-80
2021/05/21 11:38:59;;;;;;;0.40;0.40;;;19.70;99.90;;;;;;5050934;28;20186;-82
2021/05/21 11:41:36;;;;;;;0.23;0.23;;;19.50;99.90;;;;;;5052205;28;20200;-82
2021/05/21 11:44:09;;;;;;;0.30;0.30;;;19.50;99.90;;;;;;5059181;28;20264;-82
2021/05/21 11:46:37;;;;;;;0.00;0.00;;;19.20;99.90;;;;;;5057279;28;20228;-81
2021/05/21 11:49:07;;;;;;;0.10;0.10;;;19.10;99.90;;;;;;5057250;28;20185;-82
2021/05/21 11:51:33;;;;;;;0.20;0.20;;;19.40;99.90;;;;;;5049802;28;20174;-81
2021/05/21 11:54:05;;;;;;;0.17;0.17;;;19.50;99.90;;;;;;5053625;28;20177;-81
2021/05/21 11:56:35;;;;;;;0.10;0.10;;;19.60;99.90;;;;;;5051177;28;20185;-81
2021/05/21 11:59:05;;;;;;;0.50;0.50;;;19.80;99.90;;;;;;5047048;28;20261;-82
2021/05/21 12:01:32;;;;;;;0.37;0.37;;;19.40;99.90;;;;;;5053367;28;20280;-80
2021/05/21 12:04:06;;;;;;;0.37;0.37;;;19.10;99.90;;;;;;5052555;28;20189;-79
2021/05/21 12:06:32;;;;;;;0.20;0.20;;;19.00;99.90;;;;;;5048982;28;20202;-79
2021/05/21 12:08:58;;;;;;;0.43;0.20;;;18.80;99.90;;;;;;5040095;28;20196;-79
2021/05/21 12:11:27;;;;;;;0.10;0.10;;;19.00;99.90;;;;;;5055708;28;20240;-79
2021/05/21 12:14:02;;;;;;;0.10;0.10;;;19.30;99.90;;;;;;5053638;28;20185;-80
2021/05/21 12:16:30;;;;;;;0.53;0.33;;;19.40;99.90;;;;;;5052449;28;20272;-80
2021/05/21 12:18:57;;;;;;;0.40;0.40;;;19.30;99.90;;;;;;5054784;28;20178;-79
2021/05/21 12:21:25;;;;;;;0.10;0.10;;;19.40;99.90;;;;;;5052983;28;20193;-79
2021/05/21 12:23:52;;;;;;;0.30;0.30;;;19.20;99.90;;;;;;5060707;28;20186;-81
2021/05/21 12:26:23;;;;;;;1.07;0.37;;;19.20;99.90;;;;;;5051688;28;20696;-80
2021/05/21 12:28:49;;;;;;;0.10;0.10;;;19.10;99.90;;;;;;5050820;28;20522;-81
2021/05/21 12:31:18;;;;;;;0.17;0.17;;;19.00;99.90;;;;;;5049537;28;20608;-81
2021/05/21 12:33:44;;;;;;;0.27;0.27;;;19.20;99.90;;;;;;5053888;28;20182;-81
2021/05/21 12:36:15;;;;;;;0.20;0.20;;;19.40;99.90;;;;;;5054029;28;20555;-80
2021/05/21 12:39:09;;;;;;;0.10;0.10;;;19.70;99.90;;;;;;5051485;28;20235;-81
2021/05/21 12:41:40;;;;;;;0.47;0.40;;;19.90;99.90;;;;;;5055690;28;20190;-81
2021/05/21 12:44:17;;;;;;;0.30;0.30;;;19.70;99.90;;;;;;5050925;28;20188;-80
2021/05/21 12:46:45;;;;;;;0.20;0.20;;;19.80;99.90;;;;;;5052368;28;20186;-78
2021/05/21 12:49:12;;;;;;;0.30;0.30;;;20.10;99.90;;;;;;5049445;28;20182;-79